Time;durP1;ratioP1;P1;durP2;ratioP2;P2;SDS_P1;SDS_P2;PMS_P1;PMS_P2;Temp;Humidity;BMP_temperature;BMP_pressure;BME280_temperature;BME280_humidity;BME280_pressure;Samples;Min_cycle;Max_cycle;Signal;HPM_P1;HPM_P2
2024/01/10 00:00:02;;;;;;;34.28;13.43;;;;;;;;;;5016289;28;20089;-83
2024/01/10 00:02:27;;;;;;;43.65;14.95;;;;;;;;;;5020772;28;20025;-80
2024/01/10 00:04:52;;;;;;;34.85;13.05;;;;;;;;;;5022617;28;20056;-80
2024/01/10 00:07:17;;;;;;;24.58;11.40;;;;;;;;;;5022474;28;20052;-80
2024/01/10 00:09:43;;;;;;;29.52;13.07;;;;;;;;;;5022796;28;20025;-80
2024/01/10 00:12:08;;;;;;;26.42;11.27;;;;;;;;;;5005182;28;20548;-81
2024/01/10 00:14:33;;;;;;;26.13;11.70;;;;;;;;;;5022666;28;20022;-81
2024/01/10 00:16:58;;;;;;;33.05;12.90;;;;;;;;;;5022774;28;20022;-80
2024/01/10 00:19:24;;;;;;;43.83;14.45;;;;;;;;;;5022535;28;20022;-81
2024/01/10 00:21:49;;;;;;;32.85;12.68;;;;;;;;;;5022444;28;20021;-80
2024/01/10 00:24:14;;;;;;;33.85;12.88;;;;;;;;;;5022376;28;20481;-81
2024/01/10 00:26:39;;;;;;;33.17;11.45;;;;;;;;;;5021908;28;20524;-81
2024/01/10 00:29:04;;;;;;;26.35;12.30;;;;;;;;;;5021942;28;20489;-80
2024/01/10 00:31:30;;;;;;;26.13;11.07;;;;;;;;;;5020175;28;20499;-79
2024/01/10 00:33:55;;;;;;;26.55;10.82;;;;;;;;;;5022534;28;20026;-80
2024/01/10 00:36:20;;;;;;;35.30;13.85;;;;;;;;;;5004448;28;20025;-80
2024/01/10 00:38:46;;;;;;;36.05;13.48;;;;;;;;;;5020809;28;20056;-79
2024/01/10 00:41:12;;;;;;;35.05;13.00;;;;;;;;;;5021341;28;20080;-81
2024/01/10 00:43:37;;;;;;;32.55;13.23;;;;;;;;;;5021146;28;20382;-80
2024/01/10 00:46:02;;;;;;;30.35;12.73;;;;;;;;;;5004590;28;20045;-80
2024/01/10 00:48:28;;;;;;;38.30;13.18;;;;;;;;;;5022437;28;20599;-79
2024/01/10 00:50:53;;;;;;;39.25;13.75;;;;;;;;;;5022005;28;20160;-80
2024/01/10 00:53:18;;;;;;;36.92;12.68;;;;;;;;;;5021616;28;20025;-80
2024/01/10 00:55:43;;;;;;;28.38;12.00;;;;;;;;;;5021605;28;20026;-81
2024/01/10 00:58:09;;;;;;;34.10;13.43;;;;;;;;;;5022285;28;20477;-80
2024/01/10 01:00:34;;;;;;;35.08;12.95;;;;;;;;;;5022121;28;20101;-79
2024/01/10 01:02:59;;;;;;;31.83;12.88;;;;;;;;;;5004470;28;20041;-79
2024/01/10 01:05:24;;;;;;;31.48;13.48;;;;;;;;;;5022072;28;20374;-81
2024/01/10 01:07:50;;;;;;;32.97;14.13;;;;;;;;;;5004274;28;20467;-80
2024/01/10 01:10:15;;;;;;;34.90;13.27;;;;;;;;;;5021190;28;20068;-79
2024/01/10 01:12:40;;;;;;;35.72;13.98;;;;;;;;;;5021674;28;20025;-80
2024/01/10 01:15:06;;;;;;;39.17;13.77;;;;;;;;;;5016851;28;20076;-79
2024/01/10 01:17:31;;;;;;;31.58;11.00;;;;;;;;;;5018797;28;20017;-80
2024/01/10 01:20:00;;;;;;;35.25;11.95;;;;;;;;;;5018283;28;20087;-79
2024/01/10 01:22:25;;;;;;;32.50;12.88;;;;;;;;;;5018616;28;20030;-80
2024/01/10 01:24:50;;;;;;;41.15;14.05;;;;;;;;;;5019241;28;20037;-80
2024/01/10 01:27:15;;;;;;;38.17;13.23;;;;;;;;;;5018507;28;20493;-79
2024/01/10 01:29:41;;;;;;;28.83;12.43;;;;;;;;;;5019086;28;20498;-80
2024/01/10 01:32:06;;;;;;;29.63;12.65;;;;;;;;;;5017172;28;20489;-81
2024/01/10 01:34:31;;;;;;;31.65;13.65;;;;;;;;;;5017017;28;20029;-80
2024/01/10 01:36:56;;;;;;;34.50;14.18;;;;;;;;;;5000518;28;20030;-80
2024/01/10 01:39:21;;;;;;;33.03;13.80;;;;;;;;;;5001312;28;20381;-80
2024/01/10 01:41:47;;;;;;;30.58;12.48;;;;;;;;;;5000940;28;20431;-80
2024/01/10 01:44:13;;;;;;;41.28;13.40;;;;;;;;;;5000775;28;20393;-80
2024/01/10 01:46:40;;;;;;;29.70;12.65;;;;;;;;;;5000900;28;20378;-80
2024/01/10 01:49:05;;;;;;;29.60;11.65;;;;;;;;;;5018290;28;20081;-79
2024/01/10 01:51:31;;;;;;;29.42;13.13;;;;;;;;;;5016730;28;20026;-81
2024/01/10 01:53:57;;;;;;;33.88;11.43;;;;;;;;;;5000710;28;20022;-81
2024/01/10 01:56:23;;;;;;;31.73;13.02;;;;;;;;;;5018396;28;20037;-79
2024/01/10 01:58:50;;;;;;;31.08;13.50;;;;;;;;;;5018674;28;20033;-82
2024/01/10 02:01:16;;;;;;;31.60;12.93;;;;;;;;;;5017777;28;20026;-81
2024/01/10 02:03:41;;;;;;;28.05;12.07;;;;;;;;;;5018449;28;20030;-81
2024/01/10 02:06:07;;;;;;;31.08;13.23;;;;;;;;;;5000276;28;20116;-82
2024/01/10 02:08:33;;;;;;;36.20;11.90;;;;;;;;;;5017373;28;20073;-82
2024/01/10 02:11:00;;;;;;;33.88;11.40;;;;;;;;;;5017680;28;20028;-77
2024/01/10 02:13:25;;;;;;;25.23;10.40;;;;;;;;;;5017558;28;20032;-79
2024/01/10 02:15:51;;;;;;;33.95;11.38;;;;;;;;;;5017735;28;20108;-81
2024/01/10 02:18:17;;;;;;;25.58;11.13;;;;;;;;;;5000271;28;20029;-79
2024/01/10 02:20:45;;;;;;;28.88;11.57;;;;;;;;;;5017967;28;20036;-78
2024/01/10 02:23:11;;;;;;;34.42;12.98;;;;;;;;;;5018386;28;20037;-80
2024/01/10 02:25:37;;;;;;;28.35;12.05;;;;;;;;;;5000117;28;20034;-78
2024/01/10 02:28:03;;;;;;;26.00;10.20;;;;;;;;;;4999376;28;20018;-81
2024/01/10 02:30:28;;;;;;;33.13;11.93;;;;;;;;;;5000457;28;20037;-80
2024/01/10 02:32:53;;;;;;;26.15;10.77;;;;;;;;;;5003891;28;20022;-78
2024/01/10 02:35:18;;;;;;;29.55;11.80;;;;;;;;;;5009341;28;20026;-81
2024/01/10 02:37:44;;;;;;;33.53;11.20;;;;;;;;;;5021271;28;20030;-79
2024/01/10 02:40:10;;;;;;;29.10;11.45;;;;;;;;;;5026960;28;20030;-79
2024/01/10 02:42:36;;;;;;;35.05;11.57;;;;;;;;;;5029527;28;20061;-79
2024/01/10 02:45:01;;;;;;;33.63;11.45;;;;;;;;;;5031411;28;20017;-80
2024/01/10 02:47:26;;;;;;;30.23;11.70;;;;;;;;;;5030818;28;20030;-79
2024/01/10 02:49:51;;;;;;;31.25;11.63;;;;;;;;;;5014057;28;20026;-80
2024/01/10 02:52:19;;;;;;;28.02;11.52;;;;;;;;;;5015805;28;20033;-80
2024/01/10 02:54:44;;;;;;;28.58;12.00;;;;;;;;;;5015951;28;20105;-80
2024/01/10 02:57:09;;;;;;;34.78;11.98;;;;;;;;;;5014475;28;20045;-79
2024/01/10 02:59:35;;;;;;;28.52;12.00;;;;;;;;;;5016030;28;20041;-80
2024/01/10 03:02:00;;;;;;;29.58;12.23;;;;;;;;;;5014176;28;20040;-81
2024/01/10 03:04:25;;;;;;;31.45;11.63;;;;;;;;;;5016360;28;20033;-80
2024/01/10 03:06:50;;;;;;;33.30;13.02;;;;;;;;;;4998355;28;20080;-79
2024/01/10 03:09:15;;;;;;;27.48;11.57;;;;;;;;;;5014352;28;20026;-80
2024/01/10 03:11:41;;;;;;;33.28;11.40;;;;;;;;;;4998024;28;20051;-81
2024/01/10 03:14:10;;;;;;;25.55;10.63;;;;;;;;;;5016080;28;20117;-81
2024/01/10 03:16:36;;;;;;;23.92;10.80;;;;;;;;;;5015761;28;20030;-79
2024/01/10 03:19:01;;;;;;;33.38;12.13;;;;;;;;;;4997864;28;20401;-81
2024/01/10 03:21:27;;;;;;;29.35;11.38;;;;;;;;;;5014694;28;20116;-81
2024/01/10 03:23:55;;;;;;;32.60;10.20;;;;;;;;;;4998412;28;20026;-79
2024/01/10 03:26:20;;;;;;;25.52;10.07;;;;;;;;;;5015700;28;20103;-79
2024/01/10 03:28:45;;;;;;;29.65;11.13;;;;;;;;;;5015946;28;20045;-80
2024/01/10 03:31:11;;;;;;;31.20;11.73;;;;;;;;;;5014792;28;20076;-80
2024/01/10 03:33:36;;;;;;;24.80;11.45;;;;;;;;;;5015973;28;20042;-77
2024/01/10 03:36:01;;;;;;;25.13;10.32;;;;;;;;;;5015687;28;20117;-79
2024/01/10 03:38:27;;;;;;;31.33;12.00;;;;;;;;;;5015930;28;20030;-78
2024/01/10 03:40:52;;;;;;;27.88;12.57;;;;;;;;;;5023193;28;20053;-77
2024/01/10 03:43:17;;;;;;;39.45;12.73;;;;;;;;;;5031640;28;20033;-78
2024/01/10 03:45:42;;;;;;;27.67;10.55;;;;;;;;;;5012723;28;20022;-78
2024/01/10 03:48:08;;;;;;;31.20;11.30;;;;;;;;;;5002803;28;20040;-82
2024/01/10 03:50:33;;;;;;;29.13;10.85;;;;;;;;;;5016888;28;20120;-80
2024/01/10 03:52:58;;;;;;;28.25;10.80;;;;;;;;;;5015710;28;20382;-80
2024/01/10 03:55:23;;;;;;;25.30;10.25;;;;;;;;;;5015672;28;20033;-82
2024/01/10 03:57:48;;;;;;;38.47;12.55;;;;;;;;;;5015921;28;20026;-82
2024/01/10 04:00:14;;;;;;;28.05;11.15;;;;;;;;;;4997599;28;20029;-81
2024/01/10 04:02:39;;;;;;;31.30;11.40;;;;;;;;;;4997718;28;20484;-81
2024/01/10 04:05:09;;;;;;;30.77;12.38;;;;;;;;;;5015280;28;20017;-81
2024/01/10 04:07:34;;;;;;;23.95;9.98;;;;;;;;;;4997624;28;20088;-82
2024/01/10 04:10:00;;;;;;;32.13;12.88;;;;;;;;;;5015586;28;20029;-81
2024/01/10 04:12:25;;;;;;;26.83;11.48;;;;;;;;;;4998244;28;20028;-81
2024/01/10 04:14:50;;;;;;;27.85;10.90;;;;;;;;;;5016715;28;20088;-80
2024/01/10 04:17:15;;;;;;;35.00;13.68;;;;;;;;;;5014239;28;20042;-80
2024/01/10 04:19:41;;;;;;;29.15;12.35;;;;;;;;;;5013638;28;20045;-80
2024/01/10 04:22:06;;;;;;;41.70;15.55;;;;;;;;;;4997999;28;20033;-80
2024/01/10 04:24:31;;;;;;;35.42;12.93;;;;;;;;;;5015699;28;20093;-80
2024/01/10 04:26:56;;;;;;;37.17;13.52;;;;;;;;;;5013983;28;20029;-80
2024/01/10 04:29:22;;;;;;;37.25;12.90;;;;;;;;;;5014937;28;20033;-80
2024/01/10 04:31:47;;;;;;;35.88;12.90;;;;;;;;;;5015163;28;20026;-81
2024/01/10 04:34:12;;;;;;;34.83;13.05;;;;;;;;;;5014758;28;20037;-80
2024/01/10 04:36:37;;;;;;;33.60;12.82;;;;;;;;;;4997881;28;20022;-80
2024/01/10 04:39:02;;;;;;;23.90;9.85;;;;;;;;;;5015609;28;20030;-79
2024/01/10 04:41:28;;;;;;;49.03;13.20;;;;;;;;;;4997548;28;20025;-81
2024/01/10 04:43:53;;;;;;;31.70;12.98;;;;;;;;;;4997133;28;20022;-82
2024/01/10 04:46:18;;;;;;;37.95;13.77;;;;;;;;;;5013483;28;20026;-81
2024/01/10 04:48:43;;;;;;;30.33;12.20;;;;;;;;;;5015314;28;20061;-80
2024/01/10 04:51:09;;;;;;;32.65;12.75;;;;;;;;;;5001508;28;20516;-82
2024/01/10 04:53:34;;;;;;;34.78;13.70;;;;;;;;;;5001097;28;20033;-81
2024/01/10 04:55:59;;;;;;;25.55;12.32;;;;;;;;;;5018388;28;20033;-80
2024/01/10 04:58:25;;;;;;;38.45;14.48;;;;;;;;;;5018541;28;20029;-80
2024/01/10 05:00:50;;;;;;;28.77;12.75;;;;;;;;;;5018246;28;20464;-81
2024/01/10 05:03:15;;;;;;;34.50;13.82;;;;;;;;;;5018709;28;20041;-80
2024/01/10 05:05:40;;;;;;;34.35;14.05;;;;;;;;;;5018456;28;20101;-80
2024/01/10 05:08:06;;;;;;;35.65;13.73;;;;;;;;;;5018332;28;20374;-80
2024/01/10 05:10:31;;;;;;;34.72;13.23;;;;;;;;;;5017793;28;20079;-80
2024/01/10 05:12:56;;;;;;;32.20;12.82;;;;;;;;;;5018408;28;20439;-80
2024/01/10 05:15:22;;;;;;;30.77;12.50;;;;;;;;;;5018664;28;20022;-80
2024/01/10 05:17:47;;;;;;;37.85;12.88;;;;;;;;;;5001792;28;20026;-80
2024/01/10 05:20:13;;;;;;;29.27;12.43;;;;;;;;;;5019293;28;20034;-80
2024/01/10 05:22:40;;;;;;;37.85;14.38;;;;;;;;;;5018821;28;20033;-79
2024/01/10 05:25:05;;;;;;;39.28;13.15;;;;;;;;;;5018534;28;20030;-81
2024/01/10 05:27:30;;;;;;;31.35;12.60;;;;;;;;;;5000701;28;20033;-82
2024/01/10 05:29:55;;;;;;;28.02;13.07;;;;;;;;;;5000403;28;20404;-80
2024/01/10 05:32:21;;;;;;;34.05;13.30;;;;;;;;;;5017997;28;20377;-80
2024/01/10 05:34:46;;;;;;;32.15;11.48;;;;;;;;;;5018257;28;20408;-80
2024/01/10 05:37:11;;;;;;;40.63;13.27;;;;;;;;;;5015939;28;20041;-80
2024/01/10 05:39:37;;;;;;;29.08;13.13;;;;;;;;;;5017988;28;20038;-81
2024/01/10 05:42:02;;;;;;;34.95;12.68;;;;;;;;;;5018343;28;20028;-81
2024/01/10 05:44:28;;;;;;;40.15;13.93;;;;;;;;;;5000840;28;20022;-81
2024/01/10 05:46:53;;;;;;;33.72;11.82;;;;;;;;;;5018551;28;20029;-82
2024/01/10 05:49:18;;;;;;;32.95;11.77;;;;;;;;;;5018122;28;20030;-80
2024/01/10 05:51:43;;;;;;;36.08;13.18;;;;;;;;;;5016526;28;20022;-79
2024/01/10 05:54:09;;;;;;;31.77;13.02;;;;;;;;;;5017980;28;20057;-81
2024/01/10 05:56:34;;;;;;;31.20;10.98;;;;;;;;;;5016615;28;20029;-81
2024/01/10 05:58:59;;;;;;;25.58;10.60;;;;;;;;;;5001485;28;20497;-81
2024/01/10 06:01:25;;;;;;;27.25;11.80;;;;;;;;;;5018048;28;20034;-80
2024/01/10 06:03:50;;;;;;;33.63;13.60;;;;;;;;;;5018104;28;20053;-82
2024/01/10 06:06:15;;;;;;;35.72;12.60;;;;;;;;;;5018022;28;20065;-82
2024/01/10 06:08:40;;;;;;;30.33;12.98;;;;;;;;;;5018147;28;20029;-82
2024/01/10 06:11:08;;;;;;;37.03;13.43;;;;;;;;;;5018304;28;20041;-82
2024/01/10 06:13:34;;;;;;;33.58;12.02;;;;;;;;;;5017327;28;20053;-82
2024/01/10 06:15:59;;;;;;;28.13;12.52;;;;;;;;;;5000590;28;20115;-83
2024/01/10 06:18:25;;;;;;;33.42;12.57;;;;;;;;;;5017362;28;20396;-81
2024/01/10 06:20:50;;;;;;;32.42;13.10;;;;;;;;;;5017132;28;20028;-81
2024/01/10 06:23:15;;;;;;;33.97;12.85;;;;;;;;;;4999141;28;20040;-81
2024/01/10 06:25:41;;;;;;;30.50;13.43;;;;;;;;;;4999305;28;20034;-81
2024/01/10 06:28:06;;;;;;;37.55;14.35;;;;;;;;;;5015264;28;20032;-81
2024/01/10 06:30:31;;;;;;;39.03;14.88;;;;;;;;;;5015045;28;20026;-81
2024/01/10 06:32:56;;;;;;;32.78;14.75;;;;;;;;;;4997663;28;20453;-79
2024/01/10 06:35:21;;;;;;;35.30;14.55;;;;;;;;;;5015132;28;20022;-80
2024/01/10 06:37:47;;;;;;;39.17;14.90;;;;;;;;;;5015337;28;20049;-81
2024/01/10 06:40:12;;;;;;;36.53;14.93;;;;;;;;;;5014620;28;20026;-82
2024/01/10 06:42:38;;;;;;;31.17;12.45;;;;;;;;;;5015875;28;20033;-82
2024/01/10 06:45:07;;;;;;;30.27;13.00;;;;;;;;;;5017638;28;20097;-83
2024/01/10 06:47:32;;;;;;;33.10;14.45;;;;;;;;;;4999639;28;20026;-80
2024/01/10 06:49:57;;;;;;;26.90;12.20;;;;;;;;;;4999107;28;20028;-80
2024/01/10 06:52:22;;;;;;;29.00;12.55;;;;;;;;;;5015946;28;20030;-79
2024/01/10 06:54:48;;;;;;;28.35;12.18;;;;;;;;;;5017370;28;20036;-79
2024/01/10 06:57:13;;;;;;;24.92;12.20;;;;;;;;;;5016855;28;20116;-79
2024/01/10 06:59:38;;;;;;;30.70;13.25;;;;;;;;;;5017177;28;20132;-79
2024/01/10 07:02:04;;;;;;;32.97;11.85;;;;;;;;;;5017474;28;20030;-80
2024/01/10 07:04:32;;;;;;;33.80;14.07;;;;;;;;;;4999139;28;20026;-81
2024/01/10 07:06:57;;;;;;;40.28;15.40;;;;;;;;;;4999625;28;20017;-80
2024/01/10 07:09:22;;;;;;;42.42;17.20;;;;;;;;;;5016883;28;20024;-81
2024/01/10 07:11:48;;;;;;;47.45;17.75;;;;;;;;;;4997876;28;20034;-80
2024/01/10 07:14:14;;;;;;;44.95;16.30;;;;;;;;;;5016477;28;20029;-78
2024/01/10 07:16:42;;;;;;;47.22;14.60;;;;;;;;;;5017244;28;20026;-79
2024/01/10 07:19:08;;;;;;;39.40;15.73;;;;;;;;;;4999312;28;20381;-80
2024/01/10 07:21:33;;;;;;;34.17;15.20;;;;;;;;;;5017176;28;20037;-79
2024/01/10 07:23:59;;;;;;;31.38;15.18;;;;;;;;;;5016951;28;20076;-79
2024/01/10 07:26:24;;;;;;;49.20;16.77;;;;;;;;;;5015567;28;20022;-77
2024/01/10 07:28:50;;;;;;;45.78;16.20;;;;;;;;;;5026349;28;20013;-78
2024/01/10 07:31:15;;;;;;;44.67;16.48;;;;;;;;;;5037102;28;20009;-78
2024/01/10 07:33:41;;;;;;;32.95;13.82;;;;;;;;;;5037069;28;20018;-78
2024/01/10 07:36:07;;;;;;;35.63;13.50;;;;;;;;;;5021021;28;20040;-79
2024/01/10 07:38:32;;;;;;;29.40;13.73;;;;;;;;;;5015747;28;20067;-79
2024/01/10 07:40:59;;;;;;;37.28;12.68;;;;;;;;;;5016186;28;20037;-79
2024/01/10 07:43:24;;;;;;;40.40;15.45;;;;;;;;;;5014408;28;20030;-79
2024/01/10 07:45:49;;;;;;;35.28;14.52;;;;;;;;;;5015870;28;20091;-78
2024/01/10 07:48:14;;;;;;;36.72;14.30;;;;;;;;;;5014131;28;20022;-79
2024/01/10 07:50:39;;;;;;;29.15;9.70;;;;;;;;;;5013962;28;20029;-77
2024/01/10 07:53:05;;;;;;;36.25;12.85;;;;;;;;;;5013834;28;20447;-78
2024/01/10 07:55:30;;;;;;;29.75;13.38;;;;;;;;;;5013617;28;20443;-77
2024/01/10 07:57:55;;;;;;;32.78;14.27;;;;;;;;;;5014264;28;20140;-77
2024/01/10 08:00:21;;;;;;;35.95;15.50;;;;;;;;;;5013929;28;20022;-79
2024/01/10 08:02:46;;;;;;;33.97;13.10;;;;;;;;;;5015592;28;20101;-79
2024/01/10 08:05:12;;;;;;;43.17;15.82;;;;;;;;;;5015336;28;20018;-79
2024/01/10 08:07:38;;;;;;;34.65;13.75;;;;;;;;;;5014038;28;20026;-79
2024/01/10 08:10:10;;;;;;;33.30;12.93;;;;;;;;;;4997719;28;20056;-80
2024/01/10 08:12:39;;;;;;;29.48;11.48;;;;;;;;;;5015797;28;20025;-80
2024/01/10 08:15:06;;;;;;;22.25;10.25;;;;;;;;;;5015247;28;20025;-79
2024/01/10 08:17:31;;;;;;;39.45;13.95;;;;;;;;;;4998071;28;20553;-80
2024/01/10 08:19:56;;;;;;;37.42;13.50;;;;;;;;;;5015350;28;20064;-80
2024/01/10 08:22:43;;;;;;;44.72;10.73;;;;;;;;;;5015792;28;20041;-79
2024/01/10 08:25:12;;;;;;;35.30;12.45;;;;;;;;;;5002997;28;20049;-80
2024/01/10 08:27:37;;;;;;;43.28;13.82;;;;;;;;;;5020781;28;20057;-79
2024/01/10 08:30:09;;;;;;;25.35;12.85;;;;;;;;;;5020862;28;20033;-79
2024/01/10 08:32:42;;;;;;;19.17;7.93;;;;;;;;;;5004752;28;20022;-80
2024/01/10 08:35:29;;;;;;;26.63;10.60;;;;;;;;;;5022528;28;20036;-81
2024/01/10 08:37:54;;;;;;;34.20;11.30;;;;;;;;;;5017836;28;20507;-79
2024/01/10 08:40:21;;;;;;;33.15;12.10;;;;;;;;;;5019685;28;20113;-79
2024/01/10 08:42:46;;;;;;;29.33;10.50;;;;;;;;;;5018816;28;20030;-79
2024/01/10 08:45:11;;;;;;;38.88;12.43;;;;;;;;;;5019061;28;20029;-79
2024/01/10 08:47:37;;;;;;;28.30;12.63;;;;;;;;;;5001922;28;20034;-79
2024/01/10 08:50:04;;;;;;;30.88;14.10;;;;;;;;;;5018580;28;20485;-81
2024/01/10 08:52:30;;;;;;;33.05;12.73;;;;;;;;;;5001356;28;20072;-79
2024/01/10 08:54:56;;;;;;;38.83;14.15;;;;;;;;;;5000633;28;20076;-79
2024/01/10 08:57:21;;;;;;;34.83;12.65;;;;;;;;;;5000450;28;20033;-79
2024/01/10 08:59:46;;;;;;;18.48;8.65;;;;;;;;;;5018104;28;20030;-80
2024/01/10 09:02:12;;;;;;;28.30;11.32;;;;;;;;;;5018976;28;20065;-81
2024/01/10 09:04:37;;;;;;;34.55;11.73;;;;;;;;;;5019008;28;20029;-81
2024/01/10 09:07:02;;;;;;;28.70;11.80;;;;;;;;;;5018541;28;20028;-81
2024/01/10 09:09:27;;;;;;;27.83;11.60;;;;;;;;;;5018195;28;20034;-80
2024/01/10 09:11:53;;;;;;;17.58;7.57;;;;;;;;;;5018792;28;20030;-81
2024/01/10 09:14:18;;;;;;;38.35;13.02;;;;;;;;;;5001358;28;20025;-80
2024/01/10 09:16:49;;;;;;;26.95;11.77;;;;;;;;;;5018598;28;20079;-81
2024/01/10 09:19:15;;;;;;;29.00;11.73;;;;;;;;;;5019005;28;20064;-82
2024/01/10 09:21:41;;;;;;;30.33;11.60;;;;;;;;;;5019047;28;20022;-80
2024/01/10 09:24:10;;;;;;;28.27;12.57;;;;;;;;;;5018601;28;20028;-81
2024/01/10 09:26:36;;;;;;;31.17;10.77;;;;;;;;;;5018846;28;20113;-80
2024/01/10 09:29:01;;;;;;;33.30;12.40;;;;;;;;;;5000975;28;20068;-80
2024/01/10 09:31:26;;;;;;;28.08;11.05;;;;;;;;;;5018740;28;20029;-79
2024/01/10 09:33:51;;;;;;;35.10;13.38;;;;;;;;;;5018015;28;20022;-80
2024/01/10 09:36:17;;;;;;;32.42;11.90;;;;;;;;;;5017908;28;20026;-80
2024/01/10 09:38:42;;;;;;;24.23;9.93;;;;;;;;;;5018341;28;20025;-78
2024/01/10 09:41:07;;;;;;;31.65;13.57;;;;;;;;;;5018295;28;20025;-80
2024/01/10 09:43:35;;;;;;;28.55;12.55;;;;;;;;;;5018559;28;20072;-79
2024/01/10 09:46:04;;;;;;;32.22;12.82;;;;;;;;;;5017922;28;20014;-78
2024/01/10 09:48:30;;;;;;;33.17;12.50;;;;;;;;;;5017787;28;20030;-79
2024/01/10 09:50:56;;;;;;;31.65;12.82;;;;;;;;;;5001572;28;20026;-79
2024/01/10 09:53:29;;;;;;;29.70;11.73;;;;;;;;;;4998400;28;20022;-78
2024/01/10 09:55:56;;;;;;;30.67;12.13;;;;;;;;;;5015918;28;20109;-80
2024/01/10 09:58:24;;;;;;;33.45;11.70;;;;;;;;;;5015555;28;20455;-77
2024/01/10 10:00:50;;;;;;;31.35;11.77;;;;;;;;;;4999685;28;20404;-79
2024/01/10 10:03:17;;;;;;;31.77;11.82;;;;;;;;;;5017458;28;20108;-78
2024/01/10 10:05:43;;;;;;;31.90;13.13;;;;;;;;;;5015970;28;20025;-79
2024/01/10 10:08:11;;;;;;;30.05;12.48;;;;;;;;;;4998727;28;20484;-79
2024/01/10 10:10:42;;;;;;;25.77;10.10;;;;;;;;;;5016112;28;20033;-77
2024/01/10 10:13:09;;;;;;;28.77;11.52;;;;;;;;;;4999148;28;20388;-78
2024/01/10 10:15:34;;;;;;;29.98;11.13;;;;;;;;;;5015622;28;20028;-79
2024/01/10 10:17:59;;;;;;;28.92;11.00;;;;;;;;;;5015698;28;20017;-79
2024/01/10 10:20:38;;;;;;;26.38;10.73;;;;;;;;;;5015561;28;20029;-78
2024/01/10 10:23:10;;;;;;;28.88;12.65;;;;;;;;;;5015391;28;20401;-78
2024/01/10 10:25:42;;;;;;;33.83;13.20;;;;;;;;;;5015324;28;20112;-78
2024/01/10 10:28:07;;;;;;;23.70;10.38;;;;;;;;;;5015827;28;20069;-79
2024/01/10 10:30:33;;;;;;;29.58;11.48;;;;;;;;;;5015732;28;20030;-78
2024/01/10 10:32:59;;;;;;;30.55;11.25;;;;;;;;;;4998093;28;20424;-79
2024/01/10 10:35:24;;;;;;;34.95;11.65;;;;;;;;;;5015992;28;20026;-78
2024/01/10 10:37:50;;;;;;;33.10;12.68;;;;;;;;;;5016006;28;20100;-78
2024/01/10 10:40:17;;;;;;;26.20;11.15;;;;;;;;;;5019243;28;20034;-80
2024/01/10 10:42:46;;;;;;;35.75;12.40;;;;;;;;;;5017168;28;20437;-78
2024/01/10 10:45:16;;;;;;;25.45;11.50;;;;;;;;;;5015988;28;20080;-77
2024/01/10 10:47:44;;;;;;;29.95;12.57;;;;;;;;;;5015493;28;20018;-76
2024/01/10 10:50:13;;;;;;;35.40;12.75;;;;;;;;;;4996649;28;20029;-77
2024/01/10 10:52:41;;;;;;;30.10;11.88;;;;;;;;;;4997330;28;20029;-78
2024/01/10 10:55:06;;;;;;;26.63;11.55;;;;;;;;;;5014602;28;20026;-78
2024/01/10 10:57:32;;;;;;;29.60;12.82;;;;;;;;;;5013589;28;20429;-79
2024/01/10 10:59:58;;;;;;;28.02;11.95;;;;;;;;;;4996272;28;20079;-83
2024/01/10 11:02:23;;;;;;;30.48;12.65;;;;;;;;;;5014298;28;20036;-80
2024/01/10 11:04:49;;;;;;;39.22;11.65;;;;;;;;;;4994966;28;20056;-78
2024/01/10 11:07:14;;;;;;;28.02;12.27;;;;;;;;;;5012025;28;20022;-76
2024/01/10 11:09:41;;;;;;;33.03;12.88;;;;;;;;;;5012233;28;20034;-78
2024/01/10 11:12:20;;;;;;;29.67;11.85;;;;;;;;;;5012476;28;20021;-77
2024/01/10 11:15:09;;;;;;;29.60;12.05;;;;;;;;;;5017512;28;20115;-77
2024/01/10 11:17:55;;;;;;;29.75;11.10;;;;;;;;;;5021077;28;20117;-78
2024/01/10 11:20:51;;;;;;;34.20;12.60;;;;;;;;;;5013104;28;20049;-77
2024/01/10 11:23:38;;;;;;;25.58;11.70;;;;;;;;;;5019739;28;20049;-79
2024/01/10 11:26:04;;;;;;;27.33;10.95;;;;;;;;;;5017788;28;20029;-78
2024/01/10 11:28:31;;;;;;;32.20;11.82;;;;;;;;;;5016127;28;20037;-80
2024/01/10 11:30:56;;;;;;;28.80;11.40;;;;;;;;;;5015527;28;20024;-79
2024/01/10 11:33:23;;;;;;;29.13;11.88;;;;;;;;;;5015992;28;20057;-78
2024/01/10 11:36:13;;;;;;;29.42;12.13;;;;;;;;;;5015019;28;20373;-80
2024/01/10 11:38:42;;;;;;;29.38;11.57;;;;;;;;;;5015020;28;20021;-78
2024/01/10 11:41:10;;;;;;;27.08;11.23;;;;;;;;;;5015424;28;20033;-78
2024/01/10 11:43:39;;;;;;;32.15;12.00;;;;;;;;;;4998255;28;20036;-82
2024/01/10 11:46:05;;;;;;;31.48;11.15;;;;;;;;;;5016845;28;20040;-81
2024/01/10 11:48:31;;;;;;;30.35;11.40;;;;;;;;;;5015783;28;20037;-80
2024/01/10 11:50:58;;;;;;;29.30;11.70;;;;;;;;;;5016713;28;20033;-81
2024/01/10 11:53:46;;;;;;;32.33;12.10;;;;;;;;;;4998951;28;20022;-81
2024/01/10 11:56:16;;;;;;;28.65;11.32;;;;;;;;;;5015940;28;20439;-78
2024/01/10 11:58:53;;;;;;;31.30;12.02;;;;;;;;;;4997772;28;20109;-82
2024/01/10 12:01:20;;;;;;;31.42;12.00;;;;;;;;;;5014522;28;20116;-82
2024/01/10 12:03:46;;;;;;;23.58;10.25;;;;;;;;;;5016964;28;20086;-80
2024/01/10 12:06:14;;;;;;;29.52;11.40;;;;;;;;;;4998983;28;20049;-81
2024/01/10 12:08:39;;;;;;;27.50;11.38;;;;;;;;;;5016612;28;20373;-80
2024/01/10 12:11:04;;;;;;;29.42;10.52;;;;;;;;;;5017034;28;20037;-81
2024/01/10 12:13:30;;;;;;;31.75;11.32;;;;;;;;;;5016801;28;20021;-80
2024/01/10 12:15:56;;;;;;;25.10;10.98;;;;;;;;;;5016596;28;20076;-79
2024/01/10 12:18:21;;;;;;;28.23;11.55;;;;;;;;;;5016157;28;20022;-81
2024/01/10 12:20:47;;;;;;;30.92;11.05;;;;;;;;;;4998744;28;20026;-81
2024/01/10 12:23:12;;;;;;;28.23;11.35;;;;;;;;;;4998890;28;20037;-81
2024/01/10 12:25:37;;;;;;;24.55;11.25;;;;;;;;;;4998990;28;20030;-80
2024/01/10 12:28:03;;;;;;;25.15;11.20;;;;;;;;;;5015296;28;20116;-82
2024/01/10 12:30:28;;;;;;;28.20;10.93;;;;;;;;;;5016962;28;20022;-82
2024/01/10 12:32:54;;;;;;;25.75;10.15;;;;;;;;;;5016726;28;20041;-83
2024/01/10 12:35:20;;;;;;;25.35;10.70;;;;;;;;;;4999124;28;20062;-80
2024/01/10 12:37:55;;;;;;;25.50;11.00;;;;;;;;;;5017127;28;20051;-79
2024/01/10 12:40:21;;;;;;;27.88;10.25;;;;;;;;;;4998504;28;20028;-81
2024/01/10 12:42:46;;;;;;;22.17;10.30;;;;;;;;;;4998044;28;20034;-81
2024/01/10 12:45:23;;;;;;;24.42;10.65;;;;;;;;;;5015977;28;20053;-81
2024/01/10 12:47:49;;;;;;;33.47;11.63;;;;;;;;;;4998592;28;20374;-83
2024/01/10 12:50:15;;;;;;;24.52;10.90;;;;;;;;;;5015390;28;20084;-81
2024/01/10 12:52:42;;;;;;;26.65;10.63;;;;;;;;;;5017550;28;20072;-82
2024/01/10 12:55:08;;;;;;;24.67;10.70;;;;;;;;;;4999647;28;20030;-81
2024/01/10 12:57:33;;;;;;;24.60;10.77;;;;;;;;;;4999818;28;20037;-81
2024/01/10 12:59:58;;;;;;;24.50;10.38;;;;;;;;;;5017496;28;20384;-81
2024/01/10 13:02:23;;;;;;;19.08;8.55;;;;;;;;;;5015979;28;20370;-81
2024/01/10 13:04:49;;;;;;;14.30;6.10;;;;;;;;;;5016884;28;20388;-81
2024/01/10 13:07:15;;;;;;;10.57;4.30;;;;;;;;;;5016553;28;20030;-81
2024/01/10 13:09:40;;;;;;;7.03;3.38;;;;;;;;;;5018611;28;20052;-82
2024/01/10 13:12:06;;;;;;;6.88;3.10;;;;;;;;;;5020054;28;20504;-82
2024/01/10 13:14:34;;;;;;;7.13;2.63;;;;;;;;;;5019978;28;20025;-84
2024/01/10 13:17:00;;;;;;;7.75;2.75;;;;;;;;;;5001581;28;20030;-82
2024/01/10 13:19:26;;;;;;;2.33;1.40;;;;;;;;;;5020026;28;20021;-80
2024/01/10 13:21:51;;;;;;;5.07;2.70;;;;;;;;;;5002207;28;20033;-77
2024/01/10 13:24:18;;;;;;;9.27;3.05;;;;;;;;;;5017816;28;20554;-78
2024/01/10 13:26:43;;;;;;;9.00;2.65;;;;;;;;;;5017226;28;20101;-78
2024/01/10 13:29:08;;;;;;;3.17;1.98;;;;;;;;;;5016694;28;20025;-78
2024/01/10 13:31:33;;;;;;;6.65;2.97;;;;;;;;;;5016265;28;20039;-77
2024/01/10 13:33:59;;;;;;;5.93;2.85;;;;;;;;;;5016760;28;20061;-76
2024/01/10 13:36:24;;;;;;;7.55;2.90;;;;;;;;;;4999846;28;20033;-77
2024/01/10 13:38:52;;;;;;;6.63;2.90;;;;;;;;;;5017553;28;20049;-76
2024/01/10 13:41:17;;;;;;;5.63;2.42;;;;;;;;;;5016114;28;20090;-76
2024/01/10 13:43:43;;;;;;;8.25;2.70;;;;;;;;;;5016403;28;20045;-76
2024/01/10 13:46:08;;;;;;;4.82;2.28;;;;;;;;;;5015813;28;20014;-75
2024/01/10 13:48:33;;;;;;;5.45;2.88;;;;;;;;;;5016697;28;20037;-75
2024/01/10 13:50:58;;;;;;;5.45;2.75;;;;;;;;;;5016013;28;20109;-75
2024/01/10 13:53:23;;;;;;;7.75;2.15;;;;;;;;;;5015865;28;20060;-74
2024/01/10 13:55:50;;;;;;;6.97;2.38;;;;;;;;;;5015757;28;20030;-75
2024/01/10 13:58:15;;;;;;;4.53;1.92;;;;;;;;;;5014623;28;20042;-75
2024/01/10 14:00:40;;;;;;;4.55;2.58;;;;;;;;;;5016284;28;20030;-75
2024/01/10 14:03:06;;;;;;;7.60;2.30;;;;;;;;;;5016054;28;20040;-76
2024/01/10 14:05:31;;;;;;;5.32;2.40;;;;;;;;;;4998882;28;20026;-74
2024/01/10 14:07:56;;;;;;;7.82;2.75;;;;;;;;;;5015606;28;20377;-75
2024/01/10 14:10:22;;;;;;;7.15;2.90;;;;;;;;;;5015863;28;20432;-75
2024/01/10 14:12:47;;;;;;;12.13;2.83;;;;;;;;;;4998383;28;20432;-75